Time;durP1;ratioP1;P1;durP2;ratioP2;P2;SDS_P1;SDS_P2;PMS_P1;PMS_P2;Temp;Humidity;BMP_temperature;BMP_pressure;BME280_temperature;BME280_humidity;BME280_pressure;Samples;Min_cycle;Max_cycle;Signal;HPM_P1;HPM_P2
2023/01/31 00:01:21;;;;;;;17.00;6.45;;;;;;;4.20;67.79;99997.13;5258076;28;20094;-87
2023/01/31 00:04:11;;;;;;;18.38;6.88;;;;;;;4.08;67.92;99976.78;5255753;28;20095;-87
2023/01/31 00:07:01;;;;;;;20.85;7.47;;;;;;;3.89;69.57;99997.84;5261762;28;20528;-87
2023/01/31 00:09:51;;;;;;;17.02;7.05;;;;;;;4.26;68.00;100016.97;5264933;28;20057;-87
2023/01/31 00:12:41;;;;;;;15.52;6.53;;;;;;;4.22;67.40;99990.03;5247381;28;20051;-87
2023/01/31 00:15:31;;;;;;;21.10;6.90;;;;;;;3.93;68.68;99967.91;5231000;28;20272;-87
2023/01/31 00:18:22;;;;;;;23.50;6.90;;;;;;;3.92;67.37;99971.47;5255732;28;20181;-87
2023/01/31 00:21:18;;;;;;;20.20;6.70;;;;;;;4.28;67.78;99986.25;5248935;28;20062;-87
2023/01/31 00:24:11;;;;;;;16.65;6.28;;;;;;;4.66;66.09;100007.84;5256570;28;20049;-87
2023/01/31 00:27:01;;;;;;;20.85;6.90;;;;;;;4.51;66.09;99957.00;5243268;28;20048;-87
2023/01/31 00:29:52;;;;;;;21.92;7.32;;;;;;;4.66;65.36;99982.44;5241818;28;20054;-87
2023/01/31 00:32:42;;;;;;;17.38;6.68;;;;;;;3.99;67.50;99980.72;5245911;28;20248;-88
2023/01/31 00:35:32;;;;;;;13.57;6.45;;;;;;;4.25;67.44;100008.25;5267392;28;20054;-87
2023/01/31 00:38:23;;;;;;;23.17;6.80;;;;;;;4.26;66.67;100012.56;5259446;28;20687;-87
2023/01/31 00:41:14;;;;;;;21.75;6.60;;;;;;;4.37;66.85;99998.88;5254231;28;20067;-87
2023/01/31 00:44:05;;;;;;;17.52;6.63;;;;;;;4.38;66.96;100005.84;5236321;28;20091;-87
2023/01/31 00:46:56;;;;;;;17.33;6.13;;;;;;;4.34;66.17;99972.78;5238156;28;20433;-87
2023/01/31 00:49:46;;;;;;;19.98;6.47;;;;;;;4.41;66.26;100018.81;5246826;28;20133;-87
2023/01/31 00:52:37;;;;;;;21.90;6.53;;;;;;;4.35;65.54;99985.84;5255417;28;20051;-87
2023/01/31 00:55:27;;;;;;;15.77;6.18;;;;;;;4.36;66.56;100018.19;5252369;28;20558;-88
2023/01/31 00:58:19;;;;;;;14.32;6.03;;;;;;;4.40;66.57;100020.59;5247359;28;20040;-87
2023/01/31 01:01:11;;;;;;;14.32;5.82;;;;;;;4.82;65.58;100002.63;5254663;28;20044;-86
2023/01/31 01:04:01;;;;;;;20.17;6.93;;;;;;;3.90;66.75;99940.03;5255835;28;20048;-88
2023/01/31 01:06:55;;;;;;;;;;;;;;;4.21;66.77;100009.34;5251810;28;20070;-87
2023/01/31 01:09:45;;;;;;;18.00;5.95;;;;;;;3.75;65.47;99898.88;5234694;28;19920;-87
2023/01/31 01:12:37;;;;;;;15.90;5.43;;;;;;;4.16;66.51;100008.72;5247372;28;20138;-87
2023/01/31 01:15:27;;;;;;;18.48;6.18;;;;;;;4.57;64.67;99974.19;5242838;28;20062;-87
2023/01/31 01:18:17;;;;;;;16.98;6.75;;;;;;;4.11;66.43;100013.38;5237428;28;20059;-87
2023/01/31 01:21:12;;;;;;;17.55;6.63;;;;;;;4.14;66.27;99993.06;5241118;28;20133;-87
2023/01/31 01:24:11;;;;;;;13.10;6.43;;;;;;;4.37;66.14;100022.50;5253271;28;20052;-87
2023/01/31 01:27:03;;;;;;;21.45;6.78;;;;;;;3.64;68.38;100025.31;5253807;28;20071;-87
2023/01/31 01:29:53;;;;;;;12.32;6.15;;;;;;;3.86;66.42;99985.72;5256795;28;20077;-88
2023/01/31 01:32:45;;;;;;;19.33;6.43;;;;;;;4.07;65.71;99983.78;5253898;28;20051;-87
2023/01/31 01:35:37;;;;;;;15.82;6.45;;;;;;;4.26;65.92;100003.84;5254483;28;20059;-87
2023/01/31 01:38:27;;;;;;;15.93;6.53;;;;;;;3.28;68.38;99984.19;5241351;28;20048;-87
2023/01/31 01:41:19;;;;;;;20.55;6.65;;;;;;;4.32;66.14;100035.88;5245650;28;20181;-87
2023/01/31 01:44:50;;;;;;;19.73;6.60;;;;;;;4.44;66.19;100055.44;5253212;28;20441;-87
2023/01/31 01:47:54;;;;;;;19.10;6.88;;;;;;;4.43;65.24;100024.81;5236547;28;20556;-87
2023/01/31 01:50:48;;;;;;;22.50;6.30;;;;;;;4.47;65.37;100016.72;5237361;28;20063;-88
2023/01/31 01:53:42;;;;;;;16.42;6.80;;;;;;;4.64;64.80;100041.25;5239871;28;20123;-87
2023/01/31 01:56:38;;;;;;;16.58;7.18;;;;;;;4.67;65.05;100054.22;5250355;28;20055;-87
2023/01/31 01:59:42;;;;;;;22.27;6.88;;;;;;;4.62;64.49;100041.31;5257330;28;20055;-87
2023/01/31 02:02:32;;;;;;;17.70;6.82;;;;;;;4.25;66.82;100021.38;5235163;28;20105;-87
2023/01/31 02:05:29;;;;;;;15.48;6.18;;;;;;;4.38;65.69;100009.31;5243872;28;20101;-87
2023/01/31 02:08:24;;;;;;;17.15;6.18;;;;;;;4.27;66.00;100003.75;5247283;28;20044;-88
2023/01/31 02:11:21;;;;;;;20.33;6.60;;;;;;;4.63;65.87;100050.03;5243804;28;20118;-87
2023/01/31 02:14:11;;;;;;;20.02;7.55;;;;;;;4.48;65.60;100035.94;5246279;28;20319;-88
2023/01/31 02:17:02;;;;;;;17.80;7.07;;;;;;;4.50;65.94;100047.19;5242443;28;20426;-87
2023/01/31 02:20:12;;;;;;;20.20;8.13;;;;;;;4.29;67.23;100058.81;5251704;28;20140;-87
2023/01/31 02:23:32;;;;;;;21.60;7.28;;;;;;;4.39;67.12;100045.13;5242154;28;20044;-86
2023/01/31 02:27:03;;;;;;;17.75;7.45;;;;;;;4.53;65.54;100035.69;5256392;28;20520;-87
2023/01/31 02:30:32;;;;;;;30.80;8.40;;;;;;;4.12;67.82;100031.66;5241507;28;20117;-87
2023/01/31 02:33:34;;;;;;;25.63;8.23;;;;;;;3.86;69.65;100061.81;5259023;28;20056;-88
2023/01/31 02:36:33;;;;;;;23.55;8.10;;;;;;;4.52;67.66;100076.03;5245734;28;20162;-87
2023/01/31 02:39:37;;;;;;;17.70;7.65;;;;;;;4.36;67.77;100076.81;5246168;28;20056;-87
2023/01/31 02:42:52;;;;;;;22.23;8.70;;;;;;;4.07;69.46;100070.38;5244454;28;20056;-87
2023/01/31 02:46:12;;;;;;;27.15;8.07;;;;;;;4.43;68.10;100072.09;5234109;28;20101;-87
2023/01/31 02:49:35;;;;;;;19.88;7.60;;;;;;;4.56;67.46;100078.41;5250692;28;20520;-87
2023/01/31 02:52:40;;;;;;;25.35;8.75;;;;;;;4.45;67.66;100070.25;5241866;28;20063;-88
2023/01/31 02:59:00;;;;;;;19.10;8.15;;;;;;;3.98;68.63;100034.13;5245598;28;20071;-87
2023/01/31 03:01:58;;;;;;;20.52;8.40;;;;;;;4.28;68.38;100068.47;5246818;28;20058;-87
2023/01/31 03:04:49;;;;;;;28.02;8.48;;;;;;;4.11;67.83;100047.50;5243379;28;20071;-87
2023/01/31 03:07:42;;;;;;;18.50;7.78;;;;;;;4.19;68.89;100079.44;5262422;28;20101;-88
2023/01/31 03:10:39;;;;;;;23.55;7.82;;;;;;;4.06;69.37;100073.94;5243571;28;20103;-87
2023/01/31 03:13:56;;;;;;;23.80;8.73;;;;;;;3.67;70.90;100066.25;5256241;28;20044;-87
2023/01/31 03:17:31;;;;;;;35.33;8.93;;;;;;;3.84;69.61;100054.94;5256871;28;20106;-87
2023/01/31 03:20:25;;;;;;;23.90;7.53;;;;;;;3.98;69.72;100068.25;5229544;28;20520;-88
2023/01/31 03:23:21;;;;;;;19.63;8.45;;;;;;;4.16;68.92;100064.69;5242720;28;20241;-88
2023/01/31 03:26:12;;;;;;;21.98;8.40;;;;;;;3.60;70.07;100025.50;5258447;28;20057;-88
2023/01/31 03:29:05;;;;;;;31.80;9.02;;;;;;;4.00;67.88;100027.00;5253086;28;20149;-87
2023/01/31 03:32:02;;;;;;;28.10;8.80;;;;;;;4.06;68.97;100068.69;5237168;28;20307;-87
2023/01/31 03:34:53;;;;;;;29.20;9.07;;;;;;;4.02;68.59;100035.66;5238065;28;20045;-87
2023/01/31 03:37:49;;;;;;;27.25;8.00;;;;;;;4.32;67.22;100043.75;5243609;28;20040;-87
2023/01/31 03:40:52;;;;;;;24.00;8.25;;;;;;;3.99;68.55;100077.81;5264597;28;20039;-88
2023/01/31 03:43:57;;;;;;;21.55;8.75;;;;;;;3.74;69.20;100042.28;5270050;28;20028;-88
2023/01/31 03:46:58;;;;;;;32.17;8.43;;;;;;;3.89;69.11;100050.31;5272544;28;20024;-89
2023/01/31 03:49:50;;;;;;;23.40;8.48;;;;;;;4.45;68.64;100075.50;5268528;28;20066;-87
2023/01/31 03:52:53;;;;;;;26.10;8.02;;;;;;;4.42;67.60;100086.16;5263812;28;20088;-89
2023/01/31 03:55:46;;;;;;;22.75;9.15;;;;;;;4.34;67.52;100090.94;5252483;28;20052;-89
2023/01/31 03:58:44;;;;;;;26.25;9.70;;;;;;;3.99;69.20;100083.06;5269472;28;20071;-89
2023/01/31 04:01:40;;;;;;;22.83;8.52;;;;;;;4.36;66.95;100068.94;5265811;28;20060;-87
2023/01/31 04:04:39;;;;;;;20.33;8.98;;;;;;;4.46;68.44;100108.69;5241255;28;20063;-88
2023/01/31 04:07:29;;;;;;;25.52;9.30;;;;;;;4.15;67.81;100091.03;5252275;28;20074;-88
2023/01/31 04:10:19;;;;;;;27.63;9.18;;;;;;;4.32;68.78;100113.81;5238529;28;20511;-87
2023/01/31 04:13:09;;;;;;;24.70;9.20;;;;;;;4.06;67.84;100071.31;5242831;28;20445;-87
2023/01/31 04:16:01;;;;;;;23.20;9.38;;;;;;;4.22;68.50;100121.28;5253898;28;20048;-88
2023/01/31 04:18:51;;;;;;;30.60;10.75;;;;;;;4.09;69.19;100100.03;5231684;28;20052;-87
2023/01/31 04:21:41;;;;;;;27.67;9.75;;;;;;;3.88;69.13;100080.13;5239350;28;20139;-87
2023/01/31 04:24:32;;;;;;;30.25;9.48;;;;;;;3.74;68.18;100047.53;5241398;28;20091;-87
2023/01/31 04:27:22;;;;;;;24.20;9.00;;;;;;;4.07;68.12;100091.38;5237141;28;20584;-87
2023/01/31 04:30:13;;;;;;;30.10;9.82;;;;;;;3.97;68.53;100105.88;5260664;28;20042;-88
2023/01/31 04:33:03;;;;;;;34.75;10.38;;;;;;;3.87;68.20;100063.50;5248490;28;20055;-87
2023/01/31 04:35:53;;;;;;;30.17;9.10;;;;;;;3.94;68.46;100098.16;5256875;28;20059;-88
2023/01/31 04:38:43;;;;;;;28.33;9.20;;;;;;;4.12;67.57;100089.41;5261846;28;20048;-87
2023/01/31 04:41:34;;;;;;;33.08;10.70;;;;;;;4.11;68.06;100094.72;5253407;28;20056;-87
2023/01/31 04:44:24;;;;;;;20.90;10.13;;;;;;;3.55;69.26;100104.41;5255825;28;20506;-86
2023/01/31 04:47:14;;;;;;;29.02;10.65;;;;;;;3.61;69.79;100091.00;5252558;28;20067;-86
2023/01/31 04:50:04;;;;;;;29.90;9.48;;;;;;;3.32;69.65;100066.16;5247144;28;20086;-85
2023/01/31 04:52:55;;;;;;;35.35;9.98;;;;;;;3.65;68.69;100068.13;5242873;28;20048;-87
2023/01/31 04:55:45;;;;;;;32.45;9.57;;;;;;;3.41;68.56;100075.34;5233948;28;20078;-87
2023/01/31 04:58:35;;;;;;;34.38;10.48;;;;;;;3.32;69.99;100088.91;5271493;22;20729;-80
2023/01/31 05:01:26;;;;;;;25.13;9.07;;;;;;;3.51;70.11;100105.50;5218163;28;20067;-79
2023/01/31 05:04:16;;;;;;;25.88;10.10;;;;;;;3.66;68.18;100104.75;5233147;28;20130;-79
2023/01/31 05:07:07;;;;;;;26.35;10.70;;;;;;;3.29;70.05;100098.59;5224512;28;20510;-80
2023/01/31 05:09:57;;;;;;;27.77;10.43;;;;;;;3.57;69.17;100102.56;5210676;28;20047;-80
2023/01/31 05:12:47;;;;;;;35.63;11.18;;;;;;;3.32;70.66;100091.53;5208573;28;20056;-80
2023/01/31 05:15:39;;;;;;;30.25;10.90;;;;;;;3.63;68.91;100104.88;5230503;28;20090;-79
2023/01/31 05:18:30;;;;;;;35.75;10.55;;;;;;;3.66;68.25;100103.91;5226464;28;20167;-79
2023/01/31 05:21:20;;;;;;;30.85;11.15;;;;;;;3.33;69.34;100093.22;5213695;28;20052;-79
2023/01/31 05:24:10;;;;;;;31.75;11.23;;;;;;;3.50;68.86;100090.66;5228253;28;20045;-80
2023/01/31 05:27:01;;;;;;;32.00;11.27;;;;;;;3.60;68.90;100104.19;5216965;28;20045;-80
2023/01/31 05:29:52;;;;;;;28.95;11.13;;;;;;;3.62;68.85;100104.97;5223204;28;20319;-81
2023/01/31 05:32:44;;;;;;;25.75;11.52;;;;;;;3.58;69.86;100098.19;5228071;28;20068;-80
2023/01/31 05:35:35;;;;;;;34.25;11.90;;;;;;;3.45;68.72;100071.69;5225650;28;20206;-81
2023/01/31 05:38:25;;;;;;;28.20;11.40;;;;;;;3.41;68.60;100099.81;5230291;28;20132;-80
2023/01/31 05:41:15;;;;;;;31.70;10.70;;;;;;;3.30;68.84;100074.06;5242366;28;20056;-81
2023/01/31 05:44:05;;;;;;;33.72;11.70;;;;;;;3.32;69.11;100099.41;5226394;28;20064;-80
2023/01/31 05:46:55;;;;;;;32.78;11.30;;;;;;;3.18;69.51;100085.16;5228242;28;20095;-79
2023/01/31 05:49:45;;;;;;;32.63;11.65;;;;;;;3.17;68.99;100083.44;5245123;28;20110;-80
2023/01/31 05:52:36;;;;;;;30.70;11.30;;;;;;;3.32;69.32;100113.34;5230608;28;20056;-80
2023/01/31 05:55:27;;;;;;;34.25;12.93;;;;;;;3.44;69.12;100114.53;5224130;28;20441;-78
2023/01/31 05:58:17;;;;;;;25.65;10.88;;;;;;;3.42;68.47;100106.75;5223940;28;20052;-78
2023/01/31 06:01:08;;;;;;;35.97;11.45;;;;;;;3.26;69.36;100109.22;5218859;28;20049;-79
2023/01/31 06:03:58;;;;;;;36.72;11.18;;;;;;;3.26;69.18;100105.75;5213360;28;20056;-79
2023/01/31 06:06:49;;;;;;;36.17;11.52;;;;;;;3.29;69.03;100113.50;5214413;28;20060;-79
2023/01/31 06:09:40;;;;;;;34.83;11.18;;;;;;;3.13;69.71;100102.84;5224520;28;20107;-79
2023/01/31 06:12:31;;;;;;;32.70;11.15;;;;;;;3.15;69.25;100113.28;5227833;28;20055;-79
2023/01/31 06:15:20;;;;;;;29.67;11.25;;;;;;;3.12;69.17;100106.41;5210677;28;20146;-79
2023/01/31 06:18:12;;;;;;;36.05;10.77;;;;;;;3.08;69.24;100096.97;5217086;28;20044;-80
2023/01/31 06:21:02;;;;;;;33.22;11.38;;;;;;;3.25;68.69;100123.25;5245601;28;20477;-80
2023/01/31 06:23:53;;;;;;;34.92;12.02;;;;;;;3.15;68.57;100121.97;5202772;28;20548;-80
2023/01/31 06:26:43;;;;;;;41.15;12.48;;;;;;;3.11;68.93;100123.00;5235229;28;20067;-79
2023/01/31 06:29:33;;;;;;;35.83;12.40;;;;;;;3.00;68.85;100118.25;5220532;28;20458;-80
2023/01/31 06:32:24;;;;;;;33.25;11.75;;;;;;;2.84;68.93;100119.84;5236499;28;20494;-80
2023/01/31 06:35:15;;;;;;;27.38;10.45;;;;;;;2.77;68.07;100107.94;5235163;28;20052;-80
2023/01/31 06:38:06;;;;;;;23.50;9.55;;;;;;;2.81;68.83;100138.31;5226795;28;20059;-80
2023/01/31 06:40:56;;;;;;;25.95;9.90;;;;;;;2.69;68.47;100134.50;5234699;28;20056;-81
2023/01/31 06:43:47;;;;;;;31.42;9.52;;;;;;;2.54;68.34;100122.03;5229792;28;20549;-80
2023/01/31 06:46:37;;;;;;;34.08;9.27;;;;;;;2.58;69.04;100148.03;5211069;28;20076;-80
2023/01/31 06:49:27;;;;;;;26.40;9.77;;;;;;;2.27;69.01;100098.72;5239323;28;20083;-79
2023/01/31 06:52:17;;;;;;;29.85;9.23;;;;;;;2.54;68.62;100140.38;5215023;28;20059;-80
2023/01/31 06:55:08;;;;;;;23.48;7.93;;;;;;;2.28;68.87;100123.97;5226826;28;20623;-80
2023/01/31 06:57:58;;;;;;;25.67;8.80;;;;;;;2.32;68.52;100130.81;5242528;28;20049;-80
2023/01/31 07:00:49;;;;;;;32.70;9.07;;;;;;;2.34;68.27;100133.34;5233548;28;20067;-79
2023/01/31 07:03:39;;;;;;;27.52;8.77;;;;;;;2.34;69.00;100139.44;5213415;28;20052;-80
2023/01/31 07:06:30;;;;;;;24.75;9.30;;;;;;;2.23;68.81;100117.25;5243962;28;20123;-79
2023/01/31 07:09:20;;;;;;;22.63;8.55;;;;;;;2.04;68.32;100083.13;5232926;28;20064;-79
2023/01/31 07:12:11;;;;;;;25.42;8.30;;;;;;;2.30;69.15;100131.78;5211583;28;20051;-79
2023/01/31 07:15:01;;;;;;;24.88;8.90;;;;;;;2.49;69.06;100130.09;5210713;28;20110;-79
2023/01/31 07:17:57;;;;;;;26.00;8.25;;;;;;;2.43;68.48;100126.88;5228056;28;20377;-80
2023/01/31 07:20:49;;;;;;;33.15;9.10;;;;;;;2.43;69.01;100134.75;5245126;28;20048;-80
2023/01/31 07:23:40;;;;;;;26.90;8.63;;;;;;;2.56;69.52;100133.31;5229659;28;20072;-79
2023/01/31 07:26:31;;;;;;;24.77;8.68;;;;;;;2.63;69.00;100121.66;5217835;28;20087;-79
2023/01/31 07:29:21;;;;;;;26.00;8.32;;;;;;;2.84;68.30;100127.72;5224986;28;20052;-79
2023/01/31 07:32:12;;;;;;;18.80;7.72;;;;;;;3.01;67.70;100130.47;5229780;28;20134;-80
2023/01/31 07:35:02;;;;;;;29.48;7.50;;;;;;;3.05;68.20;100139.03;5215197;28;20623;-80
2023/01/31 07:37:52;;;;;;;26.80;8.57;;;;;;;3.17;67.04;100151.56;5230536;28;20055;-81
2023/01/31 07:40:42;;;;;;;23.30;7.72;;;;;;;3.28;66.74;100154.59;5229257;28;20487;-80
2023/01/31 07:43:33;;;;;;;20.40;6.90;;;;;;;3.23;67.14;100139.97;5230352;28;20056;-78
2023/01/31 07:46:23;;;;;;;25.95;7.80;;;;;;;3.54;65.89;100152.50;5239604;28;20051;-79
2023/01/31 07:49:14;;;;;;;17.75;7.18;;;;;;;3.30;67.25;100138.78;5235954;28;20045;-79
2023/01/31 07:52:03;;;;;;;21.40;7.40;;;;;;;3.54;65.94;100134.16;5222294;28;20048;-80
2023/01/31 07:54:54;;;;;;;18.77;6.43;;;;;;;3.65;66.38;100168.63;5209425;28;20076;-79
2023/01/31 07:57:44;;;;;;;27.13;6.82;;;;;;;3.76;65.13;100165.50;5215913;28;20079;-79
2023/01/31 08:03:43;;;;;;;26.70;7.05;;;;;;;3.66;65.43;100170.31;5242098;28;20099;-79
2023/01/31 08:06:33;;;;;;;24.75;7.28;;;;;;;3.59;64.78;100171.53;5243468;28;20111;-78
2023/01/31 08:09:24;;;;;;;19.95;7.57;;;;;;;3.73;65.23;100178.75;5242316;28;20067;-79
2023/01/31 08:12:14;;;;;;;18.77;7.32;;;;;;;3.73;65.08;100160.38;5218339;28;20079;-78
2023/01/31 08:15:05;;;;;;;23.73;8.25;;;;;;;4.01;64.84;100191.44;5226016;28;20056;-80
2023/01/31 08:17:55;;;;;;;29.13;9.02;;;;;;;3.82;65.05;100180.09;5221633;28;20072;-79
2023/01/31 08:20:45;;;;;;;32.05;9.27;;;;;;;3.90;66.13;100186.66;5226675;28;20049;-79
2023/01/31 08:23:37;;;;;;;32.40;10.75;;;;;;;4.10;66.23;100169.97;5241223;28;20061;-80
2023/01/31 08:26:27;;;;;;;33.50;10.40;;;;;;;4.26;65.96;100158.75;5243347;28;20487;-79
2023/01/31 08:29:17;;;;;;;22.35;10.18;;;;;;;4.33;66.72;100171.47;5223583;28;20041;-79
2023/01/31 08:32:08;;;;;;;34.50;11.15;;;;;;;4.38;65.54;100159.00;5223806;28;20059;-79
2023/01/31 08:34:58;;;;;;;25.17;11.05;;;;;;;4.35;66.42;100153.88;5229957;28;20068;-79
2023/01/31 08:37:48;;;;;;;42.20;11.90;;;;;;;4.39;66.51;100152.81;5236414;28;20526;-80
2023/01/31 08:40:38;;;;;;;44.92;13.57;;;;;;;4.42;64.58;100133.41;5218678;28;20056;-78
2023/01/31 08:43:29;;;;;;;30.00;10.10;;;;;;;4.43;66.08;100156.97;5224982;28;20056;-80
2023/01/31 08:46:31;;;;;;;28.35;9.25;;;;;;;4.15;65.85;100130.41;5222320;28;20494;-80
2023/01/31 08:49:21;;;;;;;21.03;7.33;;;;;;;4.47;65.10;100160.31;5226405;28;20036;-79
2023/01/31 08:52:11;;;;;;;28.75;10.43;;;;;;;4.30;64.92;100165.53;5226058;28;20511;-79
2023/01/31 08:55:02;;;;;;;25.25;9.00;;;;;;;4.43;65.03;100156.13;5228638;28;20540;-79
2023/01/31 08:57:53;;;;;;;28.25;9.02;;;;;;;4.38;65.61;100164.25;5223882;28;20047;-80
2023/01/31 09:00:49;;;;;;;25.63;9.15;;;;;;;4.11;65.57;100153.31;5235330;28;20048;-80
2023/01/31 09:03:40;;;;;;;24.77;8.90;;;;;;;4.40;64.66;100162.41;5212451;28;20301;-79
2023/01/31 09:06:33;;;;;;;27.40;10.32;;;;;;;4.68;64.25;100164.47;5198179;28;20053;-80
2023/01/31 09:09:24;;;;;;;27.52;9.05;;;;;;;4.40;66.32;100166.78;5195897;28;20286;-79
2023/01/31 09:12:15;;;;;;;26.88;10.05;;;;;;;4.86;64.77;100167.94;5209033;28;20321;-78
2023/01/31 09:15:06;;;;;;;28.35;9.15;;;;;;;5.13;63.53;100156.91;5198348;28;20083;-80
2023/01/31 09:17:56;;;;;;;22.27;8.82;;;;;;;4.75;64.50;100177.31;5226900;28;20083;-79
2023/01/31 09:20:46;;;;;;;21.42;7.72;;;;;;;5.14;63.89;100169.16;5215117;28;20063;-80
2023/01/31 09:23:37;;;;;;;22.45;8.30;;;;;;;5.37;62.43;100168.78;5233446;28;20076;-79
2023/01/31 09:26:31;;;;;;;24.17;8.10;;;;;;;5.49;62.07;100146.19;5228455;28;20135;-79
2023/01/31 09:29:22;;;;;;;19.45;7.47;;;;;;;5.42;61.95;100118.53;5209409;28;20055;-79
2023/01/31 09:32:12;;;;;;;19.75;7.90;;;;;;;5.86;61.30;100142.41;5215522;28;20523;-79
2023/01/31 09:35:02;;;;;;;25.92;7.97;;;;;;;6.42;61.00;100148.03;5201875;28;20052;-78
2023/01/31 09:37:52;;;;;;;25.92;8.70;;;;;;;6.49;58.78;100130.94;5219170;28;20090;-79
2023/01/31 09:40:43;;;;;;;32.65;8.82;;;;;;;6.17;60.08;100139.88;5204564;28;20469;-79
2023/01/31 09:43:40;;;;;;;24.77;7.95;;;;;;;6.00;60.84;100139.03;5200664;28;20071;-79
2023/01/31 09:46:36;;;;;;;22.08;6.80;;;;;;;5.92;59.96;100128.03;5222927;28;20107;-79
2023/01/31 09:49:30;;;;;;;14.82;7.03;;;;;;;6.15;60.10;100136.47;5229697;28;20174;-79
2023/01/31 09:52:21;;;;;;;26.33;6.45;;;;;;;6.29;61.05;100150.56;5230387;28;20621;-79
2023/01/31 09:55:16;;;;;;;24.23;7.32;;;;;;;6.25;59.88;100137.63;5200081;28;20058;-80
2023/01/31 09:58:22;;;;;;;24.98;6.60;;;;;;;5.50;60.86;100134.78;5209418;28;20100;-79
2023/01/31 10:01:27;;;;;;;25.85;7.10;;;;;;;6.37;60.01;100159.78;5231322;28;20051;-79
2023/01/31 10:04:29;;;;;;;18.30;6.28;;;;;;;6.08;61.94;100168.41;5212371;28;20055;-79
2023/01/31 10:07:30;;;;;;;19.48;6.30;;;;;;;6.20;61.35;100145.81;5235324;28;20254;-79
2023/01/31 10:10:38;;;;;;;20.67;7.15;;;;;;;5.99;60.98;100136.47;5196728;28;20041;-77
2023/01/31 10:13:40;;;;;;;22.00;6.43;;;;;;;6.08;61.76;100159.66;5221313;28;20053;-78
2023/01/31 10:16:34;;;;;;;27.00;7.35;;;;;;;6.28;60.38;100127.75;5210085;28;20235;-78
2023/01/31 10:19:31;;;;;;;15.55;6.47;;;;;;;6.67;60.85;100131.63;5205783;28;20514;-78
2023/01/31 10:22:33;;;;;;;19.20;6.13;;;;;;;6.61;59.90;100134.63;5207755;28;20110;-79
2023/01/31 10:25:30;;;;;;;22.92;6.22;;;;;;;6.42;59.66;100148.03;5204274;28;20055;-79
2023/01/31 10:28:34;;;;;;;25.88;6.43;;;;;;;6.42;61.23;100145.38;5206497;28;20498;-79
2023/01/31 10:31:50;;;;;;;17.67;5.60;;;;;;;6.55;59.84;100151.63;5201433;28;20584;-79
2023/01/31 10:34:54;;;;;;;20.95;5.95;;;;;;;6.31;61.38;100132.00;5215538;28;20138;-79
2023/01/31 10:37:52;;;;;;;25.10;5.65;;;;;;;6.33;60.63;100131.00;5224849;28;20049;-79
2023/01/31 10:40:47;;;;;;;12.80;5.10;;;;;;;6.55;59.41;100130.56;5198539;28;20048;-78
2023/01/31 10:43:46;;;;;;;9.40;4.55;;;;;;;6.35;60.69;100157.22;5199534;28;20338;-79
2023/01/31 10:46:36;;;;;;;13.70;4.53;;;;;;;6.26;60.58;100153.34;5198596;28;20056;-79
2023/01/31 10:49:28;;;;;;;14.73;4.18;;;;;;;6.11;60.35;100141.91;5200525;28;20111;-79
2023/01/31 10:52:32;;;;;;;25.48;5.10;;;;;;;5.72;60.47;100138.84;5210009;28;20060;-77
2023/01/31 10:55:42;;;;;;;24.88;4.40;;;;;;;6.17;59.79;100135.44;5203226;28;20196;-79
2023/01/31 10:58:34;;;;;;;17.73;4.60;;;;;;;6.35;60.04;100137.00;5205542;28;20061;-79
2023/01/31 11:01:26;;;;;;;16.40;4.85;;;;;;;6.58;59.44;100145.34;5209809;28;20053;-79
2023/01/31 11:04:29;;;;;;;16.38;5.40;;;;;;;6.78;59.26;100137.09;5224699;28;20056;-79
2023/01/31 11:07:20;;;;;;;18.70;4.47;;;;;;;6.23;59.37;100121.94;5211737;28;20090;-79
2023/01/31 11:10:26;;;;;;;15.18;4.40;;;;;;;6.28;59.79;100116.38;5229266;28;20133;-78
2023/01/31 11:13:18;;;;;;;19.75;5.07;;;;;;;6.36;59.92;100079.91;5207150;28;20052;-79
2023/01/31 11:16:10;;;;;;;16.55;4.90;;;;;;;6.64;59.33;100091.44;5241434;22;20044;-72
2023/01/31 11:19:25;;;;;;;11.65;4.38;;;;;;;6.28;59.54;100113.75;5217869;28;20644;-72
2023/01/31 11:22:26;;;;;;;15.30;4.85;;;;;;;6.52;58.52;100104.41;5202921;28;20049;-73
2023/01/31 11:25:22;;;;;;;19.83;4.47;;;;;;;6.21;59.06;100076.38;5176526;28;20060;-74
2023/01/31 11:28:21;;;;;;;12.13;4.20;;;;;;;7.10;57.80;100067.53;5192273;28;20421;-72
2023/01/31 11:31:20;;;;;;;15.95;4.65;;;;;;;6.55;58.10;100067.31;5191030;28;20128;-72
2023/01/31 11:34:25;;;;;;;11.00;4.03;;;;;;;7.04;57.31;100059.06;5191531;28;20398;-74
2023/01/31 11:37:17;;;;;;;13.57;3.33;;;;;;;6.67;56.08;100049.09;5177860;28;20075;-72
2023/01/31 11:40:26;;;;;;;11.68;3.42;;;;;;;6.76;56.75;100062.56;5176990;28;20056;-73
2023/01/31 11:43:19;;;;;;;11.90;3.63;;;;;;;6.55;57.32;100055.94;5182193;28;20056;-73
2023/01/31 11:46:09;;;;;;;10.82;2.95;;;;;;;5.72;59.64;100067.78;5192266;28;20058;-72
2023/01/31 11:49:11;;;;;;;10.40;3.00;;;;;;;6.77;57.85;100063.41;5175961;28;20110;-74
2023/01/31 11:52:12;;;;;;;11.65;3.30;;;;;;;6.82;56.43;100067.47;5190673;28;20065;-73
2023/01/31 11:55:07;;;;;;;8.82;2.78;;;;;;;6.91;56.92;100054.66;5213278;28;20052;-76
2023/01/31 11:58:00;;;;;;;14.55;3.75;;;;;;;6.93;56.22;100056.25;5218555;28;20135;-71
2023/01/31 12:00:57;;;;;;;10.25;2.88;;;;;;;6.21;58.24;100033.41;5198043;28;20053;-71
2023/01/31 12:03:59;;;;;;;15.90;2.78;;;;;;;6.54;56.80;100048.97;5195063;28;20872;-72
2023/01/31 12:07:20;;;;;;;13.38;3.97;;;;;;;6.28;56.63;100038.22;5213484;28;20060;-71
2023/01/31 12:10:32;;;;;;;10.68;2.67;;;;;;;6.81;55.71;100036.75;5218008;28;20499;-71
2023/01/31 12:13:23;;;;;;;7.85;2.45;;;;;;;6.52;55.95;100024.50;5184928;28;20057;-71
2023/01/31 12:16:23;;;;;;;13.68;2.88;;;;;;;6.10;56.43;100008.56;5217207;28;20045;-69
2023/01/31 12:19:13;;;;;;;12.70;2.72;;;;;;;6.38;57.21;100001.63;5215584;28;20096;-67
2023/01/31 12:22:15;;;;;;;15.43;2.78;;;;;;;6.44;56.33;99997.78;5216562;28;20048;-70
2023/01/31 12:25:42;;;;;;;14.98;2.72;;;;;;;6.93;54.99;99997.41;5202387;28;20053;-72
2023/01/31 12:28:41;;;;;;;7.45;2.65;;;;;;;6.86;55.91;99999.56;5220778;28;20064;-70
2023/01/31 12:31:40;;;;;;;10.02;2.55;;;;;;;6.54;55.50;99986.59;5214668;28;20052;-71
2023/01/31 12:34:38;;;;;;;11.43;2.50;;;;;;;6.93;56.03;99995.59;5194985;28;20064;-72
2023/01/31 12:38:21;;;;;;;11.10;2.85;;;;;;;7.03;55.06;99986.19;5216941;28;20049;-71
2023/01/31 12:41:17;;;;;;;14.05;3.25;;;;;;;6.59;56.53;99976.63;5218398;28;20049;-72
2023/01/31 12:44:17;;;;;;;11.30;2.53;;;;;;;6.27;56.55;99981.22;5193620;28;20183;-71
2023/01/31 12:47:32;;;;;;;20.60;3.17;;;;;;;6.78;54.61;99978.09;5216221;28;20056;-70
2023/01/31 12:50:44;;;;;;;16.20;2.83;;;;;;;6.44;55.38;99982.81;5209810;28;20521;-70
2023/01/31 12:54:02;;;;;;;14.80;2.85;;;;;;;6.98;54.90;99959.25;5199117;28;20068;-74
2023/01/31 12:57:28;;;;;;;17.30;2.70;;;;;;;6.98;54.01;99959.25;5220483;28;20056;-71
2023/01/31 13:00:37;;;;;;;11.25;2.35;;;;;;;6.21;56.03;99952.59;5220273;28;20060;-71
2023/01/31 13:03:39;;;;;;;11.82;2.72;;;;;;;6.67;54.78;99923.44;5198634;28;20084;-71
2023/01/31 13:06:44;;;;;;;7.55;2.17;;;;;;;6.17;54.92;99935.31;5183678;28;20053;-70
2023/01/31 13:09:35;;;;;;;9.70;2.85;;;;;;;6.15;56.36;99946.88;5198660;28;20056;-71
2023/01/31 13:12:30;;;;;;;7.65;2.50;;;;;;;6.31;56.99;99937.94;5194603;28;20248;-72
2023/01/31 13:15:30;;;;;;;9.63;2.92;;;;;;;6.53;55.12;99921.66;5190023;28;20072;-70
2023/01/31 13:18:22;;;;;;;12.48;3.58;;;;;;;6.41;56.00;99916.31;5173068;28;20057;-71
2023/01/31 13:21:16;;;;;;;8.93;2.70;;;;;;;7.16;53.71;99919.47;5194337;28;20049;-70
2023/01/31 13:24:19;;;;;;;14.30;2.55;;;;;;;7.17;54.76;99910.59;5186551;28;20122;-71
2023/01/31 13:27:32;;;;;;;11.63;2.83;;;;;;;7.52;53.65;99911.78;5189298;28;20112;-73
2023/01/31 13:30:47;;;;;;;9.65;2.75;;;;;;;6.92;54.12;99906.91;5189763;28;20103;-71
2023/01/31 13:33:46;;;;;;;8.98;2.47;;;;;;;6.92;54.69;99916.59;5172081;28;20111;-73
2023/01/31 13:36:51;;;;;;;17.85;2.78;;;;;;;6.67;55.19;99931.34;5185229;28;20284;-70
2023/01/31 13:39:46;;;;;;;6.97;2.20;;;;;;;7.07;54.05;99936.72;5187227;28;20056;-71
2023/01/31 13:42:36;;;;;;;8.63;2.70;;;;;;;7.01;54.70;99934.47;5191953;28;20144;-73
2023/01/31 13:45:35;;;;;;;8.48;2.45;;;;;;;5.97;56.51;99920.72;5199253;28;20061;-71